Lodeynoye Pole, Russia
Current Conditions -  °F | °C
As of 6:00 PM on Thursday 30 Oct 2014 (Local Time) from ULPB Reporting Station
NA  
Wind Chill: 32°   Ceiling: NA
Heat Index: 37°   Visibility: 6mi
Dew Point: 36°   Wind: 7mph
Humidity: 93%   Direction: 240°WSW
Pressure: 29.85"   Gusts: NA
Location:  60.73°N, 33.56°E
Report Text: ULPB 301500Z AUTO 24003MPS 9999 ////// 03/02 Q1011
Loading
Personal Weather Stations






























Interactive Weather Map
Tropical Storm Tracking
New forecast layout! Learn more

10-Day Weather Forecast

Advertisements
Track Severe Weather on mobile